createdAt,value
2022-08-07T00:02:40.525Z,53.41
2022-08-07T00:07:24.325Z,55.67
2022-08-07T00:12:32.029Z,58.42
2022-08-07T00:17:36.374Z,59.68
2022-08-07T00:22:43.056Z,60.27
2022-08-07T00:27:56.546Z,61.60
2022-08-07T00:33:02.291Z,70.02
2022-08-07T00:38:06.628Z,64.31
2022-08-07T00:43:59.135Z,54.31
2022-08-07T00:48:35.552Z,52.62
2022-08-07T00:53:50.899Z,55.35
2022-08-07T00:58:59.589Z,57.81
2022-08-07T01:04:07.369Z,58.17
2022-08-07T01:09:11.083Z,60.34
2022-08-07T01:14:36.971Z,67.38
2022-08-07T01:19:52.349Z,64.29
2022-08-07T01:25:00.238Z,50.31
2022-08-07T01:30:07.569Z,50.70
2022-08-07T01:35:17.165Z,54.20
2022-08-07T01:40:25.201Z,56.04
2022-08-07T01:45:36.914Z,58.86
2022-08-07T01:50:50.033Z,61.34
2022-08-07T01:56:04.478Z,69.35
2022-08-07T02:01:25.595Z,66.80
2022-08-07T02:06:43.214Z,54.72
2022-08-07T02:12:03.288Z,52.93
2022-08-07T02:17:24.879Z,56.01
2022-08-07T02:22:33.359Z,57.99
2022-08-07T02:27:41.492Z,59.00
2022-08-07T02:33:03.728Z,59.77
2022-08-07T02:38:16.979Z,68.56
2022-08-07T02:43:28.210Z,63.20
2022-08-07T02:48:32.619Z,53.28
2022-08-07T02:53:42.745Z,52.26
2022-08-07T02:58:54.265Z,55.30
2022-08-07T03:04:03.242Z,56.91
2022-08-07T03:09:11.597Z,58.75
2022-08-07T03:14:16.188Z,60.49
2022-08-07T03:19:20.610Z,68.71
2022-08-07T03:24:26.689Z,63.51
2022-08-07T03:29:49.519Z,52.92
2022-08-07T03:35:00.838Z,51.78
2022-08-07T03:40:23.871Z,54.04
2022-08-07T03:45:35.236Z,57.06
2022-08-07T03:50:51.971Z,59.47
2022-08-07T03:56:03.996Z,61.28
2022-08-07T04:01:11.772Z,69.86
2022-08-07T04:06:36.087Z,63.02
2022-08-07T04:12:27.436Z,53.58
2022-08-07T04:17:05.028Z,54.48
2022-08-07T04:22:28.529Z,57.87
2022-08-07T04:27:35.802Z,59.45
2022-08-07T04:32:44.909Z,61.06
2022-08-07T04:38:03.120Z,68.01
2022-08-07T04:43:09.301Z,64.45
2022-08-07T04:48:33.339Z,53.56
2022-08-07T04:54:05.349Z,54.32
2022-08-07T05:00:10.702Z,56.49
2022-08-07T05:05:51.742Z,58.94
2022-08-07T05:11:02.569Z,59.96
2022-08-07T05:16:14.952Z,67.82
2022-08-07T05:22:00.380Z,60.92
2022-08-07T05:26:51.234Z,52.64
2022-08-07T05:31:56.475Z,54.77
2022-08-07T05:37:01.734Z,57.43
2022-08-07T05:42:12.361Z,59.37
2022-08-07T05:47:20.884Z,60.93
2022-08-07T05:52:42.136Z,65.45
2022-08-07T05:57:48.215Z,55.78
2022-08-07T06:02:56.502Z,57.52
2022-08-07T06:08:30.170Z,60.36
2022-08-07T06:14:10.820Z,61.59
2022-08-07T06:18:51.870Z,66.00
2022-08-07T06:24:45.378Z,55.32
2022-08-07T06:29:29.974Z,56.69
2022-08-07T06:34:33.110Z,58.96
2022-08-07T06:40:15.952Z,61.64
2022-08-07T06:45:01.054Z,59.71
2022-08-07T06:50:05.640Z,55.38
2022-08-07T06:55:32.464Z,57.91
2022-08-07T07:00:48.247Z,60.09
2022-08-07T07:06:04.893Z,61.11
2022-08-07T07:11:13.911Z,61.81
2022-08-07T07:16:49.780Z,61.34
2022-08-07T07:22:05.053Z,61.17
2022-08-07T07:27:24.505Z,61.49
2022-08-07T07:32:42.693Z,61.31
2022-08-07T07:38:02.175Z,60.19
2022-08-07T07:43:15.149Z,60.53
2022-08-07T07:48:35.822Z,60.35
2022-08-07T07:53:51.513Z,59.87
2022-08-07T07:58:58.673Z,58.97
2022-08-07T08:04:11.299Z,58.75
2022-08-07T08:09:22.728Z,57.86
2022-08-07T08:25:41.731Z,56.53
2022-08-07T08:30:51.467Z,55.38
2022-08-07T08:35:59.126Z,54.43
2022-08-07T08:41:18.754Z,54.42
2022-08-07T08:46:38.826Z,53.13
2022-08-07T08:52:24.108Z,51.63
2022-08-07T08:57:44.002Z,51.19
2022-08-07T09:03:00.831Z,52.22
2022-08-07T09:08:24.391Z,51.21
2022-08-07T09:13:55.378Z,51.32
2022-08-07T09:19:50.949Z,50.33
2022-08-07T09:25:17.359Z,50.01
2022-08-07T09:30:28.251Z,47.20
2022-08-07T09:36:02.770Z,47.39
2022-08-07T09:41:28.534Z,45.71
2022-08-07T09:47:55.261Z,45.50
2022-08-07T09:53:06.026Z,46.02
2022-08-07T09:58:48.845Z,46.44
2022-08-07T10:04:14.217Z,46.89
2022-08-07T10:10:06.930Z,47.29
2022-08-07T10:15:30.613Z,47.64
2022-08-07T10:22:14.559Z,46.94
2022-08-07T10:27:10.552Z,45.70
2022-08-07T10:32:53.574Z,45.98
2022-08-07T10:38:48.770Z,44.87
2022-08-07T10:44:38.440Z,45.83
2022-08-07T10:49:55.723Z,43.55
2022-08-07T10:55:26.531Z,42.35
2022-08-07T11:00:56.268Z,39.84
2022-08-07T11:06:18.247Z,41.54
2022-08-07T11:11:35.861Z,44.10
2022-08-07T11:16:51.283Z,44.56
2022-08-07T11:22:26.612Z,44.13
2022-08-07T11:28:15.604Z,42.08
2022-08-07T11:33:53.353Z,39.00
2022-08-07T11:39:59.220Z,40.35
2022-08-07T11:44:58.025Z,40.05
2022-08-07T11:50:44.662Z,41.65
2022-08-07T11:56:35.597Z,43.02
2022-08-07T12:02:20.977Z,44.26
2022-08-07T12:07:53.308Z,44.23
2022-08-07T12:13:37.176Z,43.70
2022-08-07T12:18:46.122Z,44.87
2022-08-07T12:24:37.703Z,45.56
2022-08-07T12:29:53.644Z,45.61
2022-08-07T12:35:03.151Z,45.68
2022-08-07T12:40:36.206Z,45.64
2022-08-07T12:46:06.879Z,47.21
2022-08-07T12:51:19.727Z,47.55
2022-08-07T12:56:31.940Z,47.18
2022-08-07T13:02:16.698Z,46.72
2022-08-07T13:08:12.081Z,47.03
2022-08-07T13:13:46.954Z,46.62
2022-08-07T13:19:50.471Z,45.58
2022-08-07T13:25:03.368Z,45.83
2022-08-07T13:30:18.930Z,46.19
2022-08-07T13:35:59.565Z,45.61
2022-08-07T13:41:41.332Z,44.79
2022-08-07T13:46:49.570Z,42.86
2022-08-07T13:52:05.155Z,40.95
2022-08-07T13:57:26.381Z,40.54
2022-08-07T14:02:40.898Z,40.56
2022-08-07T14:07:59.995Z,40.18
2022-08-07T14:13:07.457Z,40.09
2022-08-07T14:18:28.394Z,39.92
2022-08-07T14:24:00.407Z,40.91
2022-08-07T14:30:04.775Z,42.01
2022-08-07T14:34:34.173Z,43.22
2022-08-07T14:40:16.724Z,43.72
2022-08-07T14:50:47.293Z,44.44
2022-08-07T14:56:02.019Z,44.10
2022-08-07T15:01:42.441Z,43.44
2022-08-07T15:06:50.401Z,43.35
2022-08-07T15:12:26.340Z,43.25
2022-08-07T15:18:03.488Z,43.55
2022-08-07T15:28:51.705Z,44.98
2022-08-07T15:34:04.432Z,45.59
2022-08-07T15:39:16.385Z,45.52
2022-08-07T15:44:23.800Z,43.89
2022-08-07T15:50:05.530Z,42.70
2022-08-07T15:55:02.818Z,42.50
2022-08-07T16:00:08.147Z,42.34
2022-08-07T16:05:19.953Z,41.44
2022-08-07T16:10:27.469Z,41.70
2022-08-07T16:15:57.883Z,42.55
2022-08-07T16:22:05.805Z,42.23
2022-08-07T16:27:24.743Z,42.15
2022-08-07T16:32:46.503Z,41.62
2022-08-07T16:38:59.868Z,41.01
2022-08-07T16:45:15.596Z,41.98
2022-08-07T16:50:39.082Z,43.10
2022-08-07T16:56:06.978Z,43.11
2022-08-07T17:01:43.070Z,42.59
2022-08-07T17:07:02.843Z,41.97
2022-08-07T17:12:44.251Z,41.79
2022-08-07T17:17:47.979Z,41.49
2022-08-07T17:24:29.859Z,42.19
2022-08-07T17:30:16.081Z,43.33
2022-08-07T17:35:50.811Z,44.36
2022-08-07T17:42:02.700Z,45.54
2022-08-07T17:47:38.506Z,46.48
2022-08-07T17:53:06.153Z,47.59
2022-08-07T17:58:30.083Z,48.15
2022-08-07T18:04:04.314Z,48.66
2022-08-07T18:10:05.093Z,49.01
2022-08-07T18:15:08.480Z,49.55
2022-08-07T18:21:07.958Z,50.24
2022-08-07T18:26:01.597Z,50.66
2022-08-07T18:31:18.817Z,51.78
2022-08-07T18:36:43.642Z,52.27
2022-08-07T18:42:29.027Z,52.87
2022-08-07T18:48:00.892Z,53.20
2022-08-07T18:53:58.696Z,53.85
2022-08-07T18:59:47.232Z,54.09
2022-08-07T19:06:01.950Z,54.56
2022-08-07T19:10:57.025Z,55.91
2022-08-07T19:16:43.041Z,55.80
2022-08-07T19:21:56.275Z,55.78
2022-08-07T19:28:58.071Z,56.26
2022-08-07T19:32:45.337Z,56.55
2022-08-07T19:37:59.689Z,57.13
2022-08-07T19:43:21.920Z,57.86
2022-08-07T19:49:09.352Z,57.56
2022-08-07T19:54:34.189Z,57.94
2022-08-07T19:59:42.209Z,58.39
2022-08-07T20:04:49.382Z,58.37
2022-08-07T20:10:37.900Z,59.06
2022-08-07T20:15:33.151Z,59.74
2022-08-07T20:20:42.164Z,59.35
2022-08-07T20:26:45.283Z,59.06
2022-08-07T20:31:53.750Z,59.72
2022-08-07T20:36:59.497Z,59.36
2022-08-07T20:42:11.159Z,59.60
2022-08-07T20:47:25.064Z,59.37
2022-08-07T20:52:52.336Z,59.50
2022-08-07T20:58:03.639Z,59.92
2022-08-07T21:03:12.174Z,60.34
2022-08-07T21:08:32.385Z,60.50
2022-08-07T21:14:20.087Z,60.23
2022-08-07T21:19:19.503Z,60.54
2022-08-07T21:24:57.075Z,60.50
2022-08-07T21:30:11.968Z,60.28
2022-08-07T21:36:05.423Z,60.35
2022-08-07T21:41:24.731Z,60.52
2022-08-07T21:46:46.790Z,60.34
2022-08-07T21:52:17.949Z,60.57
2022-08-07T21:58:30.224Z,60.67
2022-08-07T22:03:42.807Z,60.57
2022-08-07T22:08:57.267Z,60.70
2022-08-07T22:14:04.990Z,60.76
2022-08-07T22:19:38.866Z,61.00
2022-08-07T22:24:57.481Z,60.67
2022-08-07T22:30:15.671Z,61.00
2022-08-07T22:35:19.469Z,61.39
2022-08-07T22:40:55.037Z,61.14
2022-08-07T22:46:46.822Z,61.41
2022-08-07T22:52:19.556Z,61.71
2022-08-07T22:58:38.463Z,74.10
2022-08-07T23:04:16.362Z,63.55
2022-08-07T23:10:03.734Z,51.42
2022-08-07T23:16:06.832Z,51.31
2022-08-07T23:21:16.349Z,53.21
2022-08-07T23:26:26.467Z,55.35
2022-08-07T23:34:21.734Z,56.90
2022-08-07T23:38:19.260Z,57.77
2022-08-07T23:44:29.376Z,58.54
2022-08-07T23:50:30.466Z,59.77
2022-08-07T23:55:55.546Z,60.13
